sensor_id;sensor_type;location;lat;lon;timestamp;temperature;humidity
48162;DHT22;33950;48.154;16.316;2022-09-16T00:02:42;17.60;99.90
48162;DHT22;33950;48.154;16.316;2022-09-16T00:05:29;17.50;99.90
48162;DHT22;33950;48.154;16.316;2022-09-16T00:08:16;17.40;99.90
48162;DHT22;33950;48.154;16.316;2022-09-16T00:11:04;17.40;99.90
48162;DHT22;33950;48.154;16.316;2022-09-16T00:13:50;17.30;99.90
48162;DHT22;33950;48.154;16.316;2022-09-16T00:16:36;17.30;99.90
48162;DHT22;33950;48.154;16.316;2022-09-16T00:19:22;17.30;99.90
48162;DHT22;33950;48.154;16.316;2022-09-16T00:22:08;17.30;99.90
48162;DHT22;33950;48.154;16.316;2022-09-16T00:24:54;17.20;99.90
48162;DHT22;33950;48.154;16.316;2022-09-16T00:27:42;17.20;99.90
48162;DHT22;33950;48.154;16.316;2022-09-16T00:30:28;17.10;99.90
48162;DHT22;33950;48.154;16.316;2022-09-16T00:33:14;17.20;99.90
48162;DHT22;33950;48.154;16.316;2022-09-16T00:36:05;17.20;99.90
48162;DHT22;33950;48.154;16.316;2022-09-16T00:38:52;17.20;99.90
48162;DHT22;33950;48.154;16.316;2022-09-16T00:41:39;17.20;99.90
48162;DHT22;33950;48.154;16.316;2022-09-16T00:44:56;17.30;99.90
48162;DHT22;33950;48.154;16.316;2022-09-16T00:47:45;17.30;99.90
48162;DHT22;33950;48.154;16.316;2022-09-16T00:50:35;17.20;99.90
48162;DHT22;33950;48.154;16.316;2022-09-16T00:53:26;17.20;99.90
48162;DHT22;33950;48.154;16.316;2022-09-16T00:56:15;17.20;99.90
48162;DHT22;33950;48.154;16.316;2022-09-16T00:59:04;17.20;99.90
48162;DHT22;33950;48.154;16.316;2022-09-16T01:01:53;17.20;99.90
48162;DHT22;33950;48.154;16.316;2022-09-16T01:04:44;17.20;99.90
48162;DHT22;33950;48.154;16.316;2022-09-16T01:07:35;17.20;99.90
48162;DHT22;33950;48.154;16.316;2022-09-16T01:10:24;17.30;99.90
48162;DHT22;33950;48.154;16.316;2022-09-16T01:13:12;17.30;99.90
48162;DHT22;33950;48.154;16.316;2022-09-16T01:16:02;17.40;99.90
48162;DHT22;33950;48.154;16.316;2022-09-16T01:18:57;17.40;99.90
48162;DHT22;33950;48.154;16.316;2022-09-16T01:21:47;17.50;99.90
48162;DHT22;33950;48.154;16.316;2022-09-16T01:24:48;17.60;99.90
48162;DHT22;33950;48.154;16.316;2022-09-16T01:27:47;17.50;99.90
48162;DHT22;33950;48.154;16.316;2022-09-16T01:30:53;17.40;99.90
48162;DHT22;33950;48.154;16.316;2022-09-16T01:33:51;17.30;99.90
48162;DHT22;33950;48.154;16.316;2022-09-16T01:36:47;17.20;99.90
48162;DHT22;33950;48.154;16.316;2022-09-16T01:39:39;17.10;99.90
48162;DHT22;33950;48.154;16.316;2022-09-16T01:42:35;17.00;99.90
48162;DHT22;33950;48.154;16.316;2022-09-16T01:45:32;17.00;99.90
48162;DHT22;33950;48.154;16.316;2022-09-16T01:48:25;17.00;99.90
48162;DHT22;33950;48.154;16.316;2022-09-16T01:51:20;17.00;99.90
48162;DHT22;33950;48.154;16.316;2022-09-16T01:54:11;17.00;99.90
48162;DHT22;33950;48.154;16.316;2022-09-16T01:57:00;17.00;99.90
48162;DHT22;33950;48.154;16.316;2022-09-16T01:59:51;17.00;99.90
48162;DHT22;33950;48.154;16.316;2022-09-16T02:02:41;17.00;99.90
48162;DHT22;33950;48.154;16.316;2022-09-16T02:05:34;16.90;99.90
48162;DHT22;33950;48.154;16.316;2022-09-16T02:08:25;16.90;99.90
48162;DHT22;33950;48.154;16.316;2022-09-16T02:11:14;16.90;99.90
48162;DHT22;33950;48.154;16.316;2022-09-16T02:14:05;16.90;99.90
48162;DHT22;33950;48.154;16.316;2022-09-16T02:16:55;17.10;99.90
48162;DHT22;33950;48.154;16.316;2022-09-16T02:19:46;17.00;99.90
48162;DHT22;33950;48.154;16.316;2022-09-16T02:22:38;17.00;99.90
48162;DHT22;33950;48.154;16.316;2022-09-16T02:25:25;17.00;99.90
48162;DHT22;33950;48.154;16.316;2022-09-16T02:28:16;17.20;99.90
48162;DHT22;33950;48.154;16.316;2022-09-16T02:31:06;17.20;99.90
48162;DHT22;33950;48.154;16.316;2022-09-16T02:33:54;17.10;99.90
48162;DHT22;33950;48.154;16.316;2022-09-16T02:36:45;17.20;99.90
48162;DHT22;33950;48.154;16.316;2022-09-16T02:39:37;17.40;99.90
48162;DHT22;33950;48.154;16.316;2022-09-16T02:42:24;17.50;99.90
48162;DHT22;33950;48.154;16.316;2022-09-16T02:45:11;17.70;99.90
48162;DHT22;33950;48.154;16.316;2022-09-16T02:48:01;17.80;99.80
48162;DHT22;33950;48.154;16.316;2022-09-16T02:50:52;17.90;99.40
48162;DHT22;33950;48.154;16.316;2022-09-16T02:53:45;18.00;99.10
48162;DHT22;33950;48.154;16.316;2022-09-16T02:56:35;17.80;99.10
48162;DHT22;33950;48.154;16.316;2022-09-16T02:59:22;17.80;99.20
48162;DHT22;33950;48.154;16.316;2022-09-16T03:02:09;17.80;99.20
48162;DHT22;33950;48.154;16.316;2022-09-16T03:04:55;17.70;99.40
48162;DHT22;33950;48.154;16.316;2022-09-16T03:07:42;17.60;99.50
48162;DHT22;33950;48.154;16.316;2022-09-16T03:10:33;17.40;99.80
48162;DHT22;33950;48.154;16.316;2022-09-16T03:13:27;17.20;99.90
48162;DHT22;33950;48.154;16.316;2022-09-16T03:16:22;17.00;99.90
48162;DHT22;33950;48.154;16.316;2022-09-16T03:19:15;17.00;99.90
48162;DHT22;33950;48.154;16.316;2022-09-16T03:22:12;16.90;99.90
48162;DHT22;33950;48.154;16.316;2022-09-16T03:25:06;16.80;99.90
48162;DHT22;33950;48.154;16.316;2022-09-16T03:28:00;16.70;99.90
48162;DHT22;33950;48.154;16.316;2022-09-16T03:30:54;16.60;99.90
48162;DHT22;33950;48.154;16.316;2022-09-16T03:33:48;16.70;99.90
48162;DHT22;33950;48.154;16.316;2022-09-16T03:36:39;16.80;99.90
48162;DHT22;33950;48.154;16.316;2022-09-16T03:39:26;16.90;99.90
48162;DHT22;33950;48.154;16.316;2022-09-16T03:42:12;16.80;99.90
48162;DHT22;33950;48.154;16.316;2022-09-16T03:44:58;16.70;99.90
48162;DHT22;33950;48.154;16.316;2022-09-16T03:47:48;16.80;99.90
48162;DHT22;33950;48.154;16.316;2022-09-16T03:50:34;16.70;99.90
48162;DHT22;33950;48.154;16.316;2022-09-16T03:53:21;16.60;99.90
48162;DHT22;33950;48.154;16.316;2022-09-16T03:56:07;16.70;99.90
48162;DHT22;33950;48.154;16.316;2022-09-16T03:58:53;16.60;99.90
48162;DHT22;33950;48.154;16.316;2022-09-16T04:01:39;16.60;99.90
48162;DHT22;33950;48.154;16.316;2022-09-16T04:04:26;16.60;99.90
48162;DHT22;33950;48.154;16.316;2022-09-16T04:07:13;16.60;99.90
48162;DHT22;33950;48.154;16.316;2022-09-16T04:09:59;16.50;99.90
48162;DHT22;33950;48.154;16.316;2022-09-16T04:12:46;16.50;99.90
48162;DHT22;33950;48.154;16.316;2022-09-16T04:15:35;16.50;99.90
48162;DHT22;33950;48.154;16.316;2022-09-16T04:18:21;16.50;99.90
48162;DHT22;33950;48.154;16.316;2022-09-16T04:21:09;16.60;99.90
48162;DHT22;33950;48.154;16.316;2022-09-16T04:23:55;16.60;99.90
48162;DHT22;33950;48.154;16.316;2022-09-16T04:26:42;16.60;99.90
48162;DHT22;33950;48.154;16.316;2022-09-16T04:29:28;16.70;99.90
48162;DHT22;33950;48.154;16.316;2022-09-16T04:32:14;16.70;99.90
48162;DHT22;33950;48.154;16.316;2022-09-16T04:35:00;16.80;99.90
48162;DHT22;33950;48.154;16.316;2022-09-16T04:37:48;16.80;99.90
48162;DHT22;33950;48.154;16.316;2022-09-16T04:40:34;16.80;99.90
48162;DHT22;33950;48.154;16.316;2022-09-16T04:43:20;16.70;99.90
48162;DHT22;33950;48.154;16.316;2022-09-16T04:46:07;16.70;99.90
48162;DHT22;33950;48.154;16.316;2022-09-16T04:48:54;16.70;99.90
48162;DHT22;33950;48.154;16.316;2022-09-16T04:51:41;16.60;99.90
48162;DHT22;33950;48.154;16.316;2022-09-16T04:54:28;16.70;99.90
48162;DHT22;33950;48.154;16.316;2022-09-16T04:57:14;16.70;99.90
48162;DHT22;33950;48.154;16.316;2022-09-16T05:00:01;16.80;99.90
48162;DHT22;33950;48.154;16.316;2022-09-16T05:02:47;16.80;99.90
48162;DHT22;33950;48.154;16.316;2022-09-16T05:05:34;16.90;99.90
48162;DHT22;33950;48.154;16.316;2022-09-16T05:08:20;16.90;99.90
48162;DHT22;33950;48.154;16.316;2022-09-16T05:11:09;17.00;99.90
48162;DHT22;33950;48.154;16.316;2022-09-16T05:13:57;16.90;99.90
48162;DHT22;33950;48.154;16.316;2022-09-16T05:16:44;16.90;99.90
48162;DHT22;33950;48.154;16.316;2022-09-16T05:19:30;17.10;99.90
48162;DHT22;33950;48.154;16.316;2022-09-16T05:22:16;17.20;99.90
48162;DHT22;33950;48.154;16.316;2022-09-16T05:25:03;17.30;99.90
48162;DHT22;33950;48.154;16.316;2022-09-16T05:27:50;17.30;99.90
48162;DHT22;33950;48.154;16.316;2022-09-16T05:30:37;17.40;99.90
48162;DHT22;33950;48.154;16.316;2022-09-16T05:33:23;17.40;99.70
48162;DHT22;33950;48.154;16.316;2022-09-16T05:36:10;17.30;99.90
48162;DHT22;33950;48.154;16.316;2022-09-16T05:38:57;17.30;99.60
48162;DHT22;33950;48.154;16.316;2022-09-16T05:41:43;17.30;99.90
48162;DHT22;33950;48.154;16.316;2022-09-16T05:44:30;17.50;99.90
48162;DHT22;33950;48.154;16.316;2022-09-16T05:47:17;17.60;99.40
48162;DHT22;33950;48.154;16.316;2022-09-16T05:50:03;17.60;99.30
48162;DHT22;33950;48.154;16.316;2022-09-16T05:52:49;17.70;99.10
48162;DHT22;33950;48.154;16.316;2022-09-16T05:55:35;17.80;99.10
48162;DHT22;33950;48.154;16.316;2022-09-16T05:58:21;17.80;99.10
48162;DHT22;33950;48.154;16.316;2022-09-16T06:01:12;17.80;99.20
48162;DHT22;33950;48.154;16.316;2022-09-16T06:04:00;17.80;99.10
48162;DHT22;33950;48.154;16.316;2022-09-16T06:06:47;17.80;98.80
48162;DHT22;33950;48.154;16.316;2022-09-16T06:09:33;17.80;98.80
48162;DHT22;33950;48.154;16.316;2022-09-16T06:12:19;17.60;98.80
48162;DHT22;33950;48.154;16.316;2022-09-16T06:15:06;17.60;98.80
48162;DHT22;33950;48.154;16.316;2022-09-16T06:17:54;17.60;98.70
48162;DHT22;33950;48.154;16.316;2022-09-16T06:20:40;17.40;98.60
48162;DHT22;33950;48.154;16.316;2022-09-16T06:23:26;17.30;98.90
48162;DHT22;33950;48.154;16.316;2022-09-16T06:26:14;17.10;99.00
48162;DHT22;33950;48.154;16.316;2022-09-16T06:29:00;17.00;99.10
48162;DHT22;33950;48.154;16.316;2022-09-16T06:31:46;17.00;99.40
48162;DHT22;33950;48.154;16.316;2022-09-16T06:34:34;17.00;99.40
48162;DHT22;33950;48.154;16.316;2022-09-16T06:37:20;17.10;99.50
48162;DHT22;33950;48.154;16.316;2022-09-16T06:40:07;17.20;99.40
48162;DHT22;33950;48.154;16.316;2022-09-16T06:42:53;17.20;99.30
48162;DHT22;33950;48.154;16.316;2022-09-16T06:45:40;17.10;99.20
48162;DHT22;33950;48.154;16.316;2022-09-16T06:48:26;17.00;99.30
48162;DHT22;33950;48.154;16.316;2022-09-16T06:51:15;17.00;99.20
48162;DHT22;33950;48.154;16.316;2022-09-16T06:54:03;17.00;99.20
48162;DHT22;33950;48.154;16.316;2022-09-16T06:56:50;17.00;98.90
48162;DHT22;33950;48.154;16.316;2022-09-16T06:59:36;16.90;98.50
48162;DHT22;33950;48.154;16.316;2022-09-16T07:02:22;16.80;98.80
48162;DHT22;33950;48.154;16.316;2022-09-16T07:05:08;16.90;98.90
48162;DHT22;33950;48.154;16.316;2022-09-16T07:07:57;16.90;98.70
48162;DHT22;33950;48.154;16.316;2022-09-16T07:10:43;16.80;98.80
48162;DHT22;33950;48.154;16.316;2022-09-16T07:13:29;16.70;98.60
48162;DHT22;33950;48.154;16.316;2022-09-16T07:16:18;16.60;98.70
48162;DHT22;33950;48.154;16.316;2022-09-16T07:19:04;16.70;98.90
48162;DHT22;33950;48.154;16.316;2022-09-16T07:21:50;16.60;98.90
48162;DHT22;33950;48.154;16.316;2022-09-16T07:24:38;16.70;98.50
48162;DHT22;33950;48.154;16.316;2022-09-16T07:27:24;16.80;98.50
48162;DHT22;33950;48.154;16.316;2022-09-16T07:30:10;16.90;98.30
48162;DHT22;33950;48.154;16.316;2022-09-16T07:32:56;17.00;97.70
48162;DHT22;33950;48.154;16.316;2022-09-16T07:35:43;17.00;97.80
48162;DHT22;33950;48.154;16.316;2022-09-16T07:38:29;17.10;97.60
48162;DHT22;33950;48.154;16.316;2022-09-16T07:41:18;17.20;97.40
48162;DHT22;33950;48.154;16.316;2022-09-16T07:44:05;17.40;97.70
48162;DHT22;33950;48.154;16.316;2022-09-16T07:46:52;17.60;97.10
48162;DHT22;33950;48.154;16.316;2022-09-16T07:49:38;17.70;97.20
48162;DHT22;33950;48.154;16.316;2022-09-16T07:52:25;17.80;96.60
48162;DHT22;33950;48.154;16.316;2022-09-16T07:55:14;17.70;96.70
48162;DHT22;33950;48.154;16.316;2022-09-16T07:58:03;17.70;96.50
48162;DHT22;33950;48.154;16.316;2022-09-16T08:00:49;17.60;96.50
48162;DHT22;33950;48.154;16.316;2022-09-16T08:03:37;17.60;96.30
48162;DHT22;33950;48.154;16.316;2022-09-16T08:06:25;17.50;96.70
48162;DHT22;33950;48.154;16.316;2022-09-16T08:09:12;17.40;96.90
48162;DHT22;33950;48.154;16.316;2022-09-16T08:12:01;17.50;97.40
48162;DHT22;33950;48.154;16.316;2022-09-16T08:14:49;17.50;97.20
48162;DHT22;33950;48.154;16.316;2022-09-16T08:17:35;17.60;96.60
48162;DHT22;33950;48.154;16.316;2022-09-16T08:20:21;17.60;96.70
48162;DHT22;33950;48.154;16.316;2022-09-16T08:23:08;17.50;96.80
48162;DHT22;33950;48.154;16.316;2022-09-16T08:25:58;17.50;96.80
48162;DHT22;33950;48.154;16.316;2022-09-16T08:28:45;17.60;96.60
48162;DHT22;33950;48.154;16.316;2022-09-16T08:31:33;17.70;96.60
48162;DHT22;33950;48.154;16.316;2022-09-16T08:34:19;17.80;96.60
48162;DHT22;33950;48.154;16.316;2022-09-16T08:37:05;17.90;96.40
48162;DHT22;33950;48.154;16.316;2022-09-16T08:39:51;18.00;96.70
48162;DHT22;33950;48.154;16.316;2022-09-16T08:42:45;18.00;96.20
48162;DHT22;33950;48.154;16.316;2022-09-16T08:45:41;18.00;95.70
48162;DHT22;33950;48.154;16.316;2022-09-16T08:48:33;18.10;95.40
48162;DHT22;33950;48.154;16.316;2022-09-16T08:51:22;18.00;95.20
48162;DHT22;33950;48.154;16.316;2022-09-16T08:54:10;18.00;95.20
48162;DHT22;33950;48.154;16.316;2022-09-16T08:57:00;18.10;95.40
48162;DHT22;33950;48.154;16.316;2022-09-16T08:59:53;18.20;95.60
48162;DHT22;33950;48.154;16.316;2022-09-16T09:02:44;18.20;94.40
48162;DHT22;33950;48.154;16.316;2022-09-16T09:05:39;18.20;94.50
48162;DHT22;33950;48.154;16.316;2022-09-16T09:08:39;18.30;94.80
48162;DHT22;33950;48.154;16.316;2022-09-16T09:11:34;18.40;94.70
48162;DHT22;33950;48.154;16.316;2022-09-16T09:14:31;18.50;94.50
48162;DHT22;33950;48.154;16.316;2022-09-16T09:17:29;18.50;93.80
48162;DHT22;33950;48.154;16.316;2022-09-16T09:20:29;18.50;94.10
48162;DHT22;33950;48.154;16.316;2022-09-16T09:23:39;18.60;94.30
48162;DHT22;33950;48.154;16.316;2022-09-16T09:26:34;18.80;94.70
48162;DHT22;33950;48.154;16.316;2022-09-16T09:29:39;18.90;94.20
48162;DHT22;33950;48.154;16.316;2022-09-16T09:32:37;18.90;95.30
48162;DHT22;33950;48.154;16.316;2022-09-16T09:35:35;18.80;95.30
48162;DHT22;33950;48.154;16.316;2022-09-16T09:41:44;18.70;95.00
48162;DHT22;33950;48.154;16.316;2022-09-16T09:44:43;18.60;95.30
48162;DHT22;33950;48.154;16.316;2022-09-16T09:47:38;18.70;95.50
48162;DHT22;33950;48.154;16.316;2022-09-16T09:50:29;18.70;95.10
48162;DHT22;33950;48.154;16.316;2022-09-16T09:53:21;18.60;94.90
48162;DHT22;33950;48.154;16.316;2022-09-16T09:56:14;18.90;95.30
48162;DHT22;33950;48.154;16.316;2022-09-16T09:59:21;18.80;95.00
48162;DHT22;33950;48.154;16.316;2022-09-16T10:02:14;18.80;95.70
48162;DHT22;33950;48.154;16.316;2022-09-16T10:05:01;18.80;96.00
48162;DHT22;33950;48.154;16.316;2022-09-16T10:07:48;18.80;96.00
48162;DHT22;33950;48.154;16.316;2022-09-16T10:10:42;18.90;96.00
48162;DHT22;33950;48.154;16.316;2022-09-16T10:13:32;19.00;95.80
48162;DHT22;33950;48.154;16.316;2022-09-16T10:16:20;19.00;96.00
48162;DHT22;33950;48.154;16.316;2022-09-16T10:19:16;18.90;96.40
48162;DHT22;33950;48.154;16.316;2022-09-16T10:22:10;18.80;96.00
48162;DHT22;33950;48.154;16.316;2022-09-16T10:24:57;18.50;96.00
48162;DHT22;33950;48.154;16.316;2022-09-16T10:27:56;18.40;96.30
48162;DHT22;33950;48.154;16.316;2022-09-16T10:30:55;18.40;96.40
48162;DHT22;33950;48.154;16.316;2022-09-16T10:33:43;18.50;97.00
48162;DHT22;33950;48.154;16.316;2022-09-16T10:36:33;18.70;97.10
48162;DHT22;33950;48.154;16.316;2022-09-16T10:39:23;18.60;96.90
48162;DHT22;33950;48.154;16.316;2022-09-16T10:42:16;18.80;97.60
48162;DHT22;33950;48.154;16.316;2022-09-16T10:45:13;18.90;97.70
48162;DHT22;33950;48.154;16.316;2022-09-16T10:48:05;18.80;97.80
48162;DHT22;33950;48.154;16.316;2022-09-16T10:50:53;18.60;97.60
48162;DHT22;33950;48.154;16.316;2022-09-16T10:53:43;18.50;97.90
48162;DHT22;33950;48.154;16.316;2022-09-16T10:56:31;18.40;97.80
48162;DHT22;33950;48.154;16.316;2022-09-16T10:59:18;18.50;98.50
48162;DHT22;33950;48.154;16.316;2022-09-16T11:02:14;18.60;98.10
48162;DHT22;33950;48.154;16.316;2022-09-16T11:05:09;18.60;97.70
48162;DHT22;33950;48.154;16.316;2022-09-16T11:08:10;18.60;97.90
48162;DHT22;33950;48.154;16.316;2022-09-16T11:11:02;18.70;98.10
48162;DHT22;33950;48.154;16.316;2022-09-16T11:13:55;18.60;97.30
48162;DHT22;33950;48.154;16.316;2022-09-16T11:16:53;18.50;97.50
48162;DHT22;33950;48.154;16.316;2022-09-16T11:19:50;18.30;97.50
48162;DHT22;33950;48.154;16.316;2022-09-16T11:22:42;18.30;97.70
48162;DHT22;33950;48.154;16.316;2022-09-16T11:25:42;18.30;97.80
48162;DHT22;33950;48.154;16.316;2022-09-16T11:28:45;18.40;97.80
48162;DHT22;33950;48.154;16.316;2022-09-16T11:31:41;18.40;97.70
48162;DHT22;33950;48.154;16.316;2022-09-16T11:34:43;18.40;97.50
48162;DHT22;33950;48.154;16.316;2022-09-16T11:37:41;18.40;97.70
48162;DHT22;33950;48.154;16.316;2022-09-16T11:40:45;18.50;97.80
48162;DHT22;33950;48.154;16.316;2022-09-16T11:43:42;18.50;97.50
48162;DHT22;33950;48.154;16.316;2022-09-16T11:46:38;18.60;97.40
48162;DHT22;33950;48.154;16.316;2022-09-16T11:49:53;18.60;97.40
48162;DHT22;33950;48.154;16.316;2022-09-16T11:53:11;18.60;97.50
48162;DHT22;33950;48.154;16.316;2022-09-16T11:56:03;18.70;97.10
48162;DHT22;33950;48.154;16.316;2022-09-16T11:58:54;18.70;97.00
48162;DHT22;33950;48.154;16.316;2022-09-16T12:01:45;18.80;96.90
48162;DHT22;33950;48.154;16.316;2022-09-16T12:04:39;19.00;96.90
48162;DHT22;33950;48.154;16.316;2022-09-16T12:07:33;18.90;96.60
48162;DHT22;33950;48.154;16.316;2022-09-16T12:10:23;19.00;96.30
48162;DHT22;33950;48.154;16.316;2022-09-16T12:13:13;19.00;95.90
48162;DHT22;33950;48.154;16.316;2022-09-16T12:16:04;19.00;95.90
48162;DHT22;33950;48.154;16.316;2022-09-16T12:18:54;18.90;95.60
48162;DHT22;33950;48.154;16.316;2022-09-16T12:21:46;18.80;95.50
48162;DHT22;33950;48.154;16.316;2022-09-16T12:24:38;18.70;95.60
48162;DHT22;33950;48.154;16.316;2022-09-16T12:27:36;18.60;96.00
48162;DHT22;33950;48.154;16.316;2022-09-16T12:30:26;18.70;95.40
48162;DHT22;33950;48.154;16.316;2022-09-16T12:33:16;18.80;95.60
48162;DHT22;33950;48.154;16.316;2022-09-16T12:36:07;18.80;95.20
48162;DHT22;33950;48.154;16.316;2022-09-16T12:38:56;18.90;95.30
48162;DHT22;33950;48.154;16.316;2022-09-16T12:45:34;18.80;95.00
48162;DHT22;33950;48.154;16.316;2022-09-16T12:48:34;18.80;94.90
48162;DHT22;33950;48.154;16.316;2022-09-16T12:51:35;18.80;95.00
48162;DHT22;33950;48.154;16.316;2022-09-16T13:01:18;18.90;94.80
48162;DHT22;33950;48.154;16.316;2022-09-16T13:04:11;18.80;94.50
48162;DHT22;33950;48.154;16.316;2022-09-16T13:06:59;18.80;94.80
48162;DHT22;33950;48.154;16.316;2022-09-16T13:09:46;18.90;94.80
48162;DHT22;33950;48.154;16.316;2022-09-16T13:12:34;18.90;94.90
48162;DHT22;33950;48.154;16.316;2022-09-16T13:15:26;19.00;94.80
48162;DHT22;33950;48.154;16.316;2022-09-16T13:18:24;19.00;95.00
48162;DHT22;33950;48.154;16.316;2022-09-16T13:21:21;19.10;94.70
48162;DHT22;33950;48.154;16.316;2022-09-16T13:24:15;19.10;94.40
48162;DHT22;33950;48.154;16.316;2022-09-16T13:27:23;19.10;94.50
48162;DHT22;33950;48.154;16.316;2022-09-16T13:30:15;19.20;94.60
48162;DHT22;33950;48.154;16.316;2022-09-16T13:33:22;19.40;94.50
48162;DHT22;33950;48.154;16.316;2022-09-16T13:36:14;19.30;94.30
48162;DHT22;33950;48.154;16.316;2022-09-16T13:39:03;19.30;94.20
48162;DHT22;33950;48.154;16.316;2022-09-16T13:41:49;19.40;94.40
48162;DHT22;33950;48.154;16.316;2022-09-16T13:44:40;19.40;94.00
48162;DHT22;33950;48.154;16.316;2022-09-16T13:47:31;19.50;94.20
48162;DHT22;33950;48.154;16.316;2022-09-16T13:50:24;19.60;93.50
48162;DHT22;33950;48.154;16.316;2022-09-16T13:53:27;19.60;93.80
48162;DHT22;33950;48.154;16.316;2022-09-16T13:59:40;19.40;93.50
48162;DHT22;33950;48.154;16.316;2022-09-16T14:02:38;19.40;93.20
48162;DHT22;33950;48.154;16.316;2022-09-16T14:05:44;19.40;93.40
48162;DHT22;33950;48.154;16.316;2022-09-16T14:08:42;19.30;93.20
48162;DHT22;33950;48.154;16.316;2022-09-16T14:11:34;19.40;92.90
48162;DHT22;33950;48.154;16.316;2022-09-16T14:16:55;19.40;93.20
48162;DHT22;33950;48.154;16.316;2022-09-16T14:19:42;19.40;93.50
48162;DHT22;33950;48.154;16.316;2022-09-16T14:22:32;19.40;92.90
48162;DHT22;33950;48.154;16.316;2022-09-16T14:25:27;19.40;93.20
48162;DHT22;33950;48.154;16.316;2022-09-16T14:28:16;19.60;93.30
48162;DHT22;33950;48.154;16.316;2022-09-16T14:31:08;19.70;93.00
48162;DHT22;33950;48.154;16.316;2022-09-16T14:33:58;19.80;93.20
48162;DHT22;33950;48.154;16.316;2022-09-16T14:36:46;19.90;92.70
48162;DHT22;33950;48.154;16.316;2022-09-16T14:39:34;19.80;92.60
48162;DHT22;33950;48.154;16.316;2022-09-16T14:42:25;19.70;92.60
48162;DHT22;33950;48.154;16.316;2022-09-16T14:45:13;19.70;92.80
48162;DHT22;33950;48.154;16.316;2022-09-16T14:48:05;19.70;92.80
48162;DHT22;33950;48.154;16.316;2022-09-16T14:50:52;19.80;92.70
48162;DHT22;33950;48.154;16.316;2022-09-16T14:53:38;19.70;92.40
48162;DHT22;33950;48.154;16.316;2022-09-16T14:56:26;19.70;92.70
48162;DHT22;33950;48.154;16.316;2022-09-16T14:59:13;19.70;92.40
48162;DHT22;33950;48.154;16.316;2022-09-16T15:02:04;19.80;92.70
48162;DHT22;33950;48.154;16.316;2022-09-16T15:04:53;20.00;92.90
48162;DHT22;33950;48.154;16.316;2022-09-16T15:07:43;20.20;92.50
48162;DHT22;33950;48.154;16.316;2022-09-16T15:10:29;20.20;92.10
48162;DHT22;33950;48.154;16.316;2022-09-16T15:13:18;20.20;92.30
48162;DHT22;33950;48.154;16.316;2022-09-16T15:16:08;20.20;92.30
48162;DHT22;33950;48.154;16.316;2022-09-16T15:18:58;20.30;92.30
48162;DHT22;33950;48.154;16.316;2022-09-16T15:21:45;20.30;92.10
48162;DHT22;33950;48.154;16.316;2022-09-16T15:24:33;20.20;92.10
48162;DHT22;33950;48.154;16.316;2022-09-16T15:27:24;20.30;92.20
48162;DHT22;33950;48.154;16.316;2022-09-16T15:30:21;20.10;92.00
48162;DHT22;33950;48.154;16.316;2022-09-16T15:33:22;20.10;92.10
48162;DHT22;33950;48.154;16.316;2022-09-16T15:36:34;20.10;92.20
48162;DHT22;33950;48.154;16.316;2022-09-16T15:39:23;20.00;92.10
48162;DHT22;33950;48.154;16.316;2022-09-16T15:42:11;19.70;92.10
48162;DHT22;33950;48.154;16.316;2022-09-16T15:45:00;19.70;92.30
48162;DHT22;33950;48.154;16.316;2022-09-16T15:47:56;19.60;92.40
48162;DHT22;33950;48.154;16.316;2022-09-16T15:50:46;19.60;92.40
48162;DHT22;33950;48.154;16.316;2022-09-16T15:53:37;19.60;92.60
48162;DHT22;33950;48.154;16.316;2022-09-16T15:56:27;19.70;92.60
48162;DHT22;33950;48.154;16.316;2022-09-16T15:59:23;19.70;92.60
48162;DHT22;33950;48.154;16.316;2022-09-16T16:02:21;19.80;92.70
48162;DHT22;33950;48.154;16.316;2022-09-16T16:05:13;19.90;92.50
48162;DHT22;33950;48.154;16.316;2022-09-16T16:08:00;20.00;92.50
48162;DHT22;33950;48.154;16.316;2022-09-16T16:11:05;20.00;92.40
48162;DHT22;33950;48.154;16.316;2022-09-16T16:13:51;19.90;92.40
48162;DHT22;33950;48.154;16.316;2022-09-16T16:16:37;20.00;92.20
48162;DHT22;33950;48.154;16.316;2022-09-16T16:19:24;20.00;92.40
48162;DHT22;33950;48.154;16.316;2022-09-16T16:22:12;20.00;92.40
48162;DHT22;33950;48.154;16.316;2022-09-16T16:24:59;20.00;92.20
48162;DHT22;33950;48.154;16.316;2022-09-16T16:27:45;19.90;92.30
48162;DHT22;33950;48.154;16.316;2022-09-16T16:30:31;19.90;92.50
48162;DHT22;33950;48.154;16.316;2022-09-16T16:33:17;19.90;92.40
48162;DHT22;33950;48.154;16.316;2022-09-16T16:36:03;20.00;92.40
48162;DHT22;33950;48.154;16.316;2022-09-16T16:38:51;20.00;92.10
48162;DHT22;33950;48.154;16.316;2022-09-16T16:41:37;19.90;92.20
48162;DHT22;33950;48.154;16.316;2022-09-16T16:44:24;19.80;92.30
48162;DHT22;33950;48.154;16.316;2022-09-16T16:47:10;19.70;92.40
48162;DHT22;33950;48.154;16.316;2022-09-16T16:49:56;19.60;92.80
48162;DHT22;33950;48.154;16.316;2022-09-16T16:52:43;19.60;92.80
48162;DHT22;33950;48.154;16.316;2022-09-16T16:55:30;19.50;92.80
48162;DHT22;33950;48.154;16.316;2022-09-16T16:58:16;19.40;93.00
48162;DHT22;33950;48.154;16.316;2022-09-16T17:01:07;19.30;93.10
48162;DHT22;33950;48.154;16.316;2022-09-16T17:03:53;19.20;93.10
48162;DHT22;33950;48.154;16.316;2022-09-16T17:06:40;19.00;93.40
48162;DHT22;33950;48.154;16.316;2022-09-16T17:09:26;19.00;93.70
48162;DHT22;33950;48.154;16.316;2022-09-16T17:12:13;18.80;94.40
48162;DHT22;33950;48.154;16.316;2022-09-16T17:15:00;18.60;95.60
48162;DHT22;33950;48.154;16.316;2022-09-16T17:17:46;18.20;96.80
48162;DHT22;33950;48.154;16.316;2022-09-16T17:20:32;18.00;98.00
48162;DHT22;33950;48.154;16.316;2022-09-16T17:23:18;17.90;98.00
48162;DHT22;33950;48.154;16.316;2022-09-16T17:26:05;17.90;98.10
48162;DHT22;33950;48.154;16.316;2022-09-16T17:28:53;18.00;98.90
48162;DHT22;33950;48.154;16.316;2022-09-16T17:31:43;17.90;99.30
48162;DHT22;33950;48.154;16.316;2022-09-16T17:34:29;17.70;99.20
48162;DHT22;33950;48.154;16.316;2022-09-16T17:37:15;17.60;99.40
48162;DHT22;33950;48.154;16.316;2022-09-16T17:40:05;17.60;99.50
48162;DHT22;33950;48.154;16.316;2022-09-16T17:42:51;17.60;99.60
48162;DHT22;33950;48.154;16.316;2022-09-16T17:45:39;17.60;98.90
48162;DHT22;33950;48.154;16.316;2022-09-16T17:48:25;17.50;98.60
48162;DHT22;33950;48.154;16.316;2022-09-16T17:51:12;17.30;98.40
48162;DHT22;33950;48.154;16.316;2022-09-16T17:53:58;17.10;98.80
48162;DHT22;33950;48.154;16.316;2022-09-16T17:56:44;16.90;98.90
48162;DHT22;33950;48.154;16.316;2022-09-16T17:59:31;16.80;99.00